Other Surface Observations
Issued by NWS Missoula, MT

Home | Current Version | Previous Version | Text Only | Print | Product List | Glossary On
Versions: 1 2 3 4 5 6 7 8 9 10 11 12 13 14 15 16 17 18 19 20 21 22 23 24 25 26 27 28 29 30 31 32 33 34 35 36 37 38 39 40 41 42 43 44 45 46 47 48 49 50
000
SXUS55 KMSO 021723
OSOMSO
MONTANA AWOS SUMMARY
NATIONAL WEATHER SERVICE MISSOULA MT
1123 AM MDT THU JUL 2 2015

Montana AWOS Reports

LAUREL      |K6S8 021715Z AUTO 07006KT 15SM 25/12 A3015 RMK AO1 T02500122
TWIN BRIDGES|K7S1 021715Z AUTO 34007KT 25SM 24/09 A3017 RMK AO1 T02440094
ROUNDUP     |KRPX 021715Z AUTO 33006KT 40SM 25/11 A3007 RMK AO1 T02500111
MALTA       |KM75 021715Z AUTO 30008KT 15SM 24/14 A3007 RMK AO1 T02440139




USA.gov is the U.S. government's official web portal to all federal, state and local government web resources and services.